EKHL weather

Holsted Helipad
Holsted, South Denmark, Denmark

Public forecast

Using degrees Celsius for public forecast. Weather courtesy of forecast.io.

METAR (pilot weather report)

Closest report is Esbjerg Airport, 12.3 nm (22.7 km) W. Retrieved 2019/07/19 07:20 UTC (0 seconds ago):

EKEB 190720Z 28003KT 5000 BR SCT005 BKN020 16/16 Q1011

TAF (pilot weather forecast)

Forecast is more than 12 hours old.

Closest forecast is Esbjerg Airport, 12.3 nm (22.7 km) W. Retrieved 2015/09/18 18:00 UTC (4 years ago):

TAF EKEB 181707Z 1818/1822 24008KT 9999 SCT025 TEMPO 1818/1820 -SHRA SCT020CB